Terminal Aerodrome Forecast
Issued by NWS Wilmington, NC

Home | Current Version | Previous Version | Text Only | Print | Product List | Glossary On
Versions: 1 2 3 4 5 6 7 8 9 10 11 12 13 14 15 16 17 18 19 20 21 22 23 24
000
FTUS42 KILM 031132 CCA
TAFFLO
TAF COR
KFLO 031132Z 0312/0412 22006KT 6SM BR BKN005
     FM031330 22006KT P6SM VCSH BKN007
     FM031500 23008KT P6SM VCSH BKN015 BKN070
     FM031700 VRB20KT 3SM SHRA VCTS SCT015 BKN050CB
     FM032000 24008KT P6SM VCSH BKN070
     FM040000 24007KT P6SM SCT050 BKN150=

USA.gov is the U.S. government's official web portal to all federal, state and local government web resources and services.